Kaprifol — 5BXX2 — position and weather

sailwx.info

Track history (hours):
 
Tides and Currents Weather Stations Pressure Air Temp Water Temp Dewpoint Dewpoint Depression Visibility Wind Speed Wind Dir Waves Ship Positions

Kaprifol

Last reported at 2014-Oct-23 16:21 UTC. Time now 2014-Oct-25 19:10 UTC.
Position N 59°05' E 004°54'.

Length 90 m; draft 4.6 m.

Type: Tanker. MMSI: 210445000.

Date/timePositionNaut miles runAvg speedWind from/ knotsBaromVisibWave heightAir tempDewpointWater temp
2014-Oct-23 16:21N 59°05' E 004°54'911.1
2014-Oct-23 15:33N 58°57' E 005°03'1010.4
2014-Oct-23 14:33N 58°49' E 005°14'2110.6
2014-Oct-23 12:32N 58°31' E 005°37'1111.5
2014-Oct-23 11:33N 58°24' E 005°54'4 3.7
2014-Oct-23 10:32N 58°26' E 005°59'0 0.0
2014-Oct-23 09:32N 58°26' E 005°59'0 0.0
2014-Oct-23 08:32N 58°26' E 005°59'0 0.0
2014-Oct-23 07:32N 58°26' E 005°59'0 0.0
2014-Oct-23 06:32N 58°26' E 005°59'0 0.0
2014-Oct-23 05:32N 58°26' E 005°59'0 0.0
2014-Oct-23 04:32N 58°26' E 005°59'0 0.0
2014-Oct-23 03:32N 58°26' E 005°59'0 0.0
2014-Oct-23 02:32N 58°26' E 005°59'0 0.0
2014-Oct-23 01:32N 58°26' E 005°59'0 0.0
2014-Oct-23 00:32N 58°26' E 005°59'0 0.0
2014-Oct-22 23:32N 58°26' E 005°59'0 0.0
2014-Oct-22 22:32N 58°26' E 005°59'0 0.0
2014-Oct-22 21:32N 58°26' E 005°59'0 0.0
2014-Oct-22 20:32N 58°26' E 005°59'1 1.0
2014-Oct-22 19:33N 58°25' E 005°60'5 4.6
2014-Oct-22 18:33N 58°25' E 005°51'8 8.2
2014-Oct-22 17:33N 58°30' E 005°39'2110.4
2014-Oct-22 15:30N 58°44' E 005°07'1110.3
2014-Oct-22 14:27N 58°53' E 004°59'7 7.7
2014-Oct-22 13:34N 58°60' E 005°03'1010.3
2014-Oct-22 12:33N 59°05' E 005°20'1110.6
2014-Oct-22 11:33N 59°09' E 005°40'10 9.7
2014-Oct-22 10:33N 59°07' E 005°59'1 0.8
2014-Oct-22 09:31N 59°07' E 006°00'0 0.0
2014-Oct-22 08:31N 59°07' E 006°00'0 0.0
2014-Oct-22 07:31N 59°07' E 006°00'0 0.0
2014-Oct-22 06:31N 59°07' E 006°00'0 0.0
2014-Oct-22 05:31N 59°07' E 006°00'0 0.0
2014-Oct-22 04:31N 59°07' E 006°00'0 0.0
2014-Oct-22 03:31N 59°07' E 006°00'0 0.0
2014-Oct-22 02:34N 59°07' E 006°00'0 0.0
2014-Oct-22 01:34N 59°07' E 006°00'0 0.0
2014-Oct-22 00:33N 59°07' E 006°00'0 0.0
2014-Oct-21 23:30N 59°07' E 006°00'0 0.0
2014-Oct-21 22:33N 59°07' E 006°00'0 0.0
2014-Oct-21 21:33N 59°07' E 006°00'0 0.0
2014-Oct-21 20:33N 59°07' E 006°00'0 0.0
2014-Oct-21 19:33N 59°07' E 006°00'0 0.0
2014-Oct-21 18:33N 59°07' E 006°00'0 0.0
2014-Oct-21 17:33N 59°07' E 006°00'0 0.0
2014-Oct-21 16:33N 59°07' E 006°00'0 0.0
2014-Oct-21 15:33N 59°07' E 006°00'0 0.0
2014-Oct-21 14:33N 59°07' E 006°00'0 0.0
2014-Oct-21 13:32N 59°07' E 006°00'5 5.1
2014-Oct-21 12:33N 59°04' E 005°52'7 6.6
2014-Oct-21 11:33N 58°58' E 005°45'0 0.0
2014-Oct-21 10:33N 58°58' E 005°45'0 0.0
2014-Oct-21 09:33N 58°58' E 005°45'0 0.0
2014-Oct-21 08:33N 58°58' E 005°45'0 0.0
2014-Oct-21 07:33N 58°58' E 005°45'0 0.0
2014-Oct-21 06:33N 58°58' E 005°45'0 0.0
2014-Oct-21 05:33N 58°58' E 005°45'0 0.0
2014-Oct-21 04:33N 58°58' E 005°45'0 0.0
2014-Oct-21 03:33N 58°58' E 005°45'0 0.0
2014-Oct-21 02:33N 58°58' E 005°45'0 0.0
2014-Oct-21 01:33N 58°58' E 005°45'0 0.0
2014-Oct-21 00:33N 58°58' E 005°45'0 0.0
2014-Oct-20 23:33N 58°58' E 005°45'0 0.0
2014-Oct-20 22:33N 58°58' E 005°45'0 0.0
2014-Oct-20 21:33N 58°58' E 005°45'0 0.0
2014-Oct-20 20:33N 58°58' E 005°45'0 0.0
2014-Oct-20 19:32N 58°58' E 005°45'0 0.0
2014-Oct-20 18:32N 58°58' E 005°45'0 0.0
2014-Oct-20 17:32N 58°58' E 005°45'0 0.0
2014-Oct-20 16:32N 58°58' E 005°45'0 0.0
2014-Oct-20 15:32N 58°58' E 005°45'0 0.0
2014-Oct-20 14:32N 58°58' E 005°45'1 1.4
2014-Oct-20 13:34N 58°59' E 005°48'9 8.8
2014-Oct-20 12:33N 59°04' E 005°33'1010.3
2014-Oct-20 11:33N 59°06' E 005°14'1010.1
2014-Oct-20 10:33N 59°14' E 005°01'  
2014-Oct-17 03:26N 54°08' E 004°54'9 9.8
2014-Oct-17 02:32N 53°59' E 004°55'1110.1
2014-Oct-17 01:26N 53°48' E 004°53'2010.6
2014-Oct-16 23:33N 53°28' E 004°45'4611.6
2014-Oct-16 19:33N 52°47' E 004°11'10 9.7
2014-Oct-16 18:33N 52°38' E 004°17'10 9.9
2014-Oct-16 17:33N 52°30' E 004°27'6 5.8
2014-Oct-16 16:34N 52°28' E 004°36'8 8.2
2014-Oct-16 15:33N 52°25' E 004°49'1 0.9
2014-Oct-16 14:32N 52°24' E 004°49'0 0.0
2014-Oct-16 13:32N 52°24' E 004°49'0 0.0
2014-Oct-16 12:32N 52°24' E 004°49'0 0.0
2014-Oct-16 11:32N 52°24' E 004°49'0 0.0
2014-Oct-16 10:32N 52°24' E 004°49'0 0.0
2014-Oct-16 09:32N 52°24' E 004°49'0 0.0
2014-Oct-16 08:32N 52°24' E 004°49'0 0.0
2014-Oct-16 07:32N 52°24' E 004°49'0 0.0
2014-Oct-16 06:32N 52°24' E 004°49'0 0.0
2014-Oct-16 05:32N 52°24' E 004°49'2 1.6
2014-Oct-16 04:34N 52°25' E 004°48'8 8.1
2014-Oct-16 03:33N 52°28' E 004°36'6 5.7
2014-Oct-16 02:33N 52°28' E 004°26'10 9.7
2014-Oct-16 01:33N 52°30' E 004°11'10 9.4
2014-Oct-16 00:33N 52°36' E 003°59'77 8.3
2014-Oct-15 15:17N 53°03' E 002°00'8 7.7
2014-Oct-15 14:13N 53°07' E 001°48'5 7.9
2014-Oct-15 13:33N 53°09' E 001°40'4611.5
2014-Oct-15 09:33N 53°30' E 000°30'1110.6
2014-Oct-15 08:33N 53°33' E 000°13'9 8.7
2014-Oct-15 07:33N 53°35' W 000°00'7 6.8
2014-Oct-15 06:31N 53°38' W 000°11'0 0.0
2014-Oct-15 05:31N 53°38' W 000°11'0 0.0
2014-Oct-15 04:25N 53°38' W 000°11'0 0.0
2014-Oct-15 03:31N 53°38' W 000°11'0 0.0
2014-Oct-15 02:31N 53°38' W 000°11'0 0.0
2014-Oct-15 01:28N 53°38' W 000°11'0 0.0
2014-Oct-15 00:31N 53°38' W 000°11'0 0.0
2014-Oct-14 23:22N 53°38' W 000°11'0 0.0
2014-Oct-14 22:31N 53°38' W 000°11'0 0.0
2014-Oct-14 21:31N 53°38' W 000°11'0 0.0
2014-Oct-14 20:31N 53°38' W 000°11'0 0.0
2014-Oct-14 19:31N 53°38' W 000°11'0 0.0
2014-Oct-14 18:31N 53°38' W 000°11'0 0.0
2014-Oct-14 17:31N 53°38' W 000°11'0 0.0
2014-Oct-14 16:31N 53°38' W 000°11'0 0.0
2014-Oct-14 15:31N 53°38' W 000°11'0 0.0
2014-Oct-14 14:31N 53°38' W 000°11'0 0.0
2014-Oct-14 13:31N 53°38' W 000°11'0 0.0
2014-Oct-14 12:31N 53°38' W 000°11'0 0.0
2014-Oct-14 11:31N 53°38' W 000°11'1 0.7
2014-Oct-14 10:34N 53°38' W 000°10'10 9.6
2014-Oct-14 09:34N 53°35' E 000°05'10 9.7
2014-Oct-14 08:33N 53°33' E 000°21'3 2.1
2014-Oct-14 07:16N 53°36' E 000°24'0 0.1
2014-Oct-14 06:31N 53°36' E 000°24'4 3.6
2014-Oct-14 05:32N 53°38' E 000°27'1110.9
2014-Oct-14 04:32N 53°47' E 000°38'  
Track history (hours):
 
Tides and Currents Weather Stations Pressure Air Temp Water Temp Dewpoint Dewpoint Depression Visibility Wind Speed Wind Dir Waves Ship Positions

Kaprifol

Last reported at 2014-Oct-23 16:21 UTC. Time now 2014-Oct-25 19:10 UTC.
Position N 59°05' E 004°54'.

Length 90 m; draft 4.6 m.

Type: Tanker. MMSI: 210445000.

Date/timePositionNaut miles runAvg speedWind from/ knotsBaromVisibWave heightAir tempDewpointWater temp
2014-Oct-23 16:21N 59°05' E 004°54'911.1
2014-Oct-23 15:33N 58°57' E 005°03'1010.4
2014-Oct-23 14:33N 58°49' E 005°14'2110.6
2014-Oct-23 12:32N 58°31' E 005°37'1111.5
2014-Oct-23 11:33N 58°24' E 005°54'4 3.7
2014-Oct-23 10:32N 58°26' E 005°59'0 0.0
2014-Oct-23 09:32N 58°26' E 005°59'0 0.0
2014-Oct-23 08:32N 58°26' E 005°59'0 0.0
2014-Oct-23 07:32N 58°26' E 005°59'0 0.0
2014-Oct-23 06:32N 58°26' E 005°59'0 0.0
2014-Oct-23 05:32N 58°26' E 005°59'0 0.0
2014-Oct-23 04:32N 58°26' E 005°59'0 0.0
2014-Oct-23 03:32N 58°26' E 005°59'0 0.0
2014-Oct-23 02:32N 58°26' E 005°59'0 0.0
2014-Oct-23 01:32N 58°26' E 005°59'0 0.0
2014-Oct-23 00:32N 58°26' E 005°59'0 0.0
2014-Oct-22 23:32N 58°26' E 005°59'0 0.0
2014-Oct-22 22:32N 58°26' E 005°59'0 0.0
2014-Oct-22 21:32N 58°26' E 005°59'0 0.0
2014-Oct-22 20:32N 58°26' E 005°59'1 1.0
2014-Oct-22 19:33N 58°25' E 005°60'5 4.6
2014-Oct-22 18:33N 58°25' E 005°51'8 8.2
2014-Oct-22 17:33N 58°30' E 005°39'2110.4
2014-Oct-22 15:30N 58°44' E 005°07'1110.3
2014-Oct-22 14:27N 58°53' E 004°59'7 7.7
2014-Oct-22 13:34N 58°60' E 005°03'1010.3
2014-Oct-22 12:33N 59°05' E 005°20'1110.6
2014-Oct-22 11:33N 59°09' E 005°40'10 9.7
2014-Oct-22 10:33N 59°07' E 005°59'1 0.8
2014-Oct-22 09:31N 59°07' E 006°00'0 0.0
2014-Oct-22 08:31N 59°07' E 006°00'0 0.0
2014-Oct-22 07:31N 59°07' E 006°00'0 0.0
2014-Oct-22 06:31N 59°07' E 006°00'0 0.0
2014-Oct-22 05:31N 59°07' E 006°00'0 0.0
2014-Oct-22 04:31N 59°07' E 006°00'0 0.0
2014-Oct-22 03:31N 59°07' E 006°00'0 0.0
2014-Oct-22 02:34N 59°07' E 006°00'0 0.0
2014-Oct-22 01:34N 59°07' E 006°00'0 0.0
2014-Oct-22 00:33N 59°07' E 006°00'0 0.0
2014-Oct-21 23:30N 59°07' E 006°00'0 0.0
2014-Oct-21 22:33N 59°07' E 006°00'0 0.0
2014-Oct-21 21:33N 59°07' E 006°00'0 0.0
2014-Oct-21 20:33N 59°07' E 006°00'0 0.0
2014-Oct-21 19:33N 59°07' E 006°00'0 0.0
2014-Oct-21 18:33N 59°07' E 006°00'0 0.0
2014-Oct-21 17:33N 59°07' E 006°00'0 0.0
2014-Oct-21 16:33N 59°07' E 006°00'0 0.0
2014-Oct-21 15:33N 59°07' E 006°00'0 0.0
2014-Oct-21 14:33N 59°07' E 006°00'0 0.0
2014-Oct-21 13:32N 59°07' E 006°00'5 5.1
2014-Oct-21 12:33N 59°04' E 005°52'7 6.6
2014-Oct-21 11:33N 58°58' E 005°45'0 0.0
2014-Oct-21 10:33N 58°58' E 005°45'0 0.0
2014-Oct-21 09:33N 58°58' E 005°45'0 0.0
2014-Oct-21 08:33N 58°58' E 005°45'0 0.0
2014-Oct-21 07:33N 58°58' E 005°45'0 0.0
2014-Oct-21 06:33N 58°58' E 005°45'0 0.0
2014-Oct-21 05:33N 58°58' E 005°45'0 0.0
2014-Oct-21 04:33N 58°58' E 005°45'0 0.0
2014-Oct-21 03:33N 58°58' E 005°45'0 0.0
2014-Oct-21 02:33N 58°58' E 005°45'0 0.0
2014-Oct-21 01:33N 58°58' E 005°45'0 0.0
2014-Oct-21 00:33N 58°58' E 005°45'0 0.0
2014-Oct-20 23:33N 58°58' E 005°45'0 0.0
2014-Oct-20 22:33N 58°58' E 005°45'0 0.0
2014-Oct-20 21:33N 58°58' E 005°45'0 0.0
2014-Oct-20 20:33N 58°58' E 005°45'0 0.0
2014-Oct-20 19:32N 58°58' E 005°45'0 0.0
2014-Oct-20 18:32N 58°58' E 005°45'0 0.0
2014-Oct-20 17:32N 58°58' E 005°45'0 0.0
2014-Oct-20 16:32N 58°58' E 005°45'0 0.0
2014-Oct-20 15:32N 58°58' E 005°45'0 0.0
2014-Oct-20 14:32N 58°58' E 005°45'1 1.4
2014-Oct-20 13:34N 58°59' E 005°48'9 8.8
2014-Oct-20 12:33N 59°04' E 005°33'1010.3
2014-Oct-20 11:33N 59°06' E 005°14'1010.1
2014-Oct-20 10:33N 59°14' E 005°01'  
2014-Oct-17 03:26N 54°08' E 004°54'9 9.8
2014-Oct-17 02:32N 53°59' E 004°55'1110.1
2014-Oct-17 01:26N 53°48' E 004°53'2010.6
2014-Oct-16 23:33N 53°28' E 004°45'4611.6
2014-Oct-16 19:33N 52°47' E 004°11'10 9.7
2014-Oct-16 18:33N 52°38' E 004°17'10 9.9
2014-Oct-16 17:33N 52°30' E 004°27'6 5.8
2014-Oct-16 16:34N 52°28' E 004°36'8 8.2
2014-Oct-16 15:33N 52°25' E 004°49'1 0.9
2014-Oct-16 14:32N 52°24' E 004°49'0 0.0
2014-Oct-16 13:32N 52°24' E 004°49'0 0.0
2014-Oct-16 12:32N 52°24' E 004°49'0 0.0
2014-Oct-16 11:32N 52°24' E 004°49'0 0.0
2014-Oct-16 10:32N 52°24' E 004°49'0 0.0
2014-Oct-16 09:32N 52°24' E 004°49'0 0.0
2014-Oct-16 08:32N 52°24' E 004°49'0 0.0
2014-Oct-16 07:32N 52°24' E 004°49'0 0.0
2014-Oct-16 06:32N 52°24' E 004°49'0 0.0
2014-Oct-16 05:32N 52°24' E 004°49'2 1.6
2014-Oct-16 04:34N 52°25' E 004°48'8 8.1
2014-Oct-16 03:33N 52°28' E 004°36'6 5.7
2014-Oct-16 02:33N 52°28' E 004°26'10 9.7
2014-Oct-16 01:33N 52°30' E 004°11'10 9.4
2014-Oct-16 00:33N 52°36' E 003°59'77 8.3
2014-Oct-15 15:17N 53°03' E 002°00'8 7.7
2014-Oct-15 14:13N 53°07' E 001°48'5 7.9
2014-Oct-15 13:33N 53°09' E 001°40'4611.5
2014-Oct-15 09:33N 53°30' E 000°30'1110.6
2014-Oct-15 08:33N 53°33' E 000°13'9 8.7
2014-Oct-15 07:33N 53°35' W 000°00'7 6.8
2014-Oct-15 06:31N 53°38' W 000°11'0 0.0
2014-Oct-15 05:31N 53°38' W 000°11'0 0.0
2014-Oct-15 04:25N 53°38' W 000°11'0 0.0
2014-Oct-15 03:31N 53°38' W 000°11'0 0.0
2014-Oct-15 02:31N 53°38' W 000°11'0 0.0
2014-Oct-15 01:28N 53°38' W 000°11'0 0.0
2014-Oct-15 00:31N 53°38' W 000°11'0 0.0
2014-Oct-14 23:22N 53°38' W 000°11'0 0.0
2014-Oct-14 22:31N 53°38' W 000°11'0 0.0
2014-Oct-14 21:31N 53°38' W 000°11'0 0.0
2014-Oct-14 20:31N 53°38' W 000°11'0 0.0
2014-Oct-14 19:31N 53°38' W 000°11'0 0.0
2014-Oct-14 18:31N 53°38' W 000°11'0 0.0
2014-Oct-14 17:31N 53°38' W 000°11'0 0.0
2014-Oct-14 16:31N 53°38' W 000°11'0 0.0
2014-Oct-14 15:31N 53°38' W 000°11'0 0.0
2014-Oct-14 14:31N 53°38' W 000°11'0 0.0
2014-Oct-14 13:31N 53°38' W 000°11'0 0.0
2014-Oct-14 12:31N 53°38' W 000°11'0 0.0
2014-Oct-14 11:31N 53°38' W 000°11'1 0.7
2014-Oct-14 10:34N 53°38' W 000°10'10 9.6
2014-Oct-14 09:34N 53°35' E 000°05'10 9.7
2014-Oct-14 08:33N 53°33' E 000°21'3 2.1
2014-Oct-14 07:16N 53°36' E 000°24'0 0.1
2014-Oct-14 06:31N 53°36' E 000°24'4 3.6
2014-Oct-14 05:32N 53°38' E 000°27'1110.9
2014-Oct-14 04:32N 53°47' E 000°38'  

Dump ship's entire track history